Time;durP1;ratioP1;P1;durP2;ratioP2;P2;SDS_P1;SDS_P2;PMS_P1;PMS_P2;Temp;Humidity;BMP_temperature;BMP_pressure;BME280_temperature;BME280_humidity;BME280_pressure;Samples;Min_cycle;Max_cycle;Signal;HPM_P1;HPM_P2
2023/05/26 00:01:03;;;;;;;9.98;2.20;;;20.70;56.70;;;;;;5073949;28;20049;-64
2023/05/26 00:03:29;;;;;;;8.77;2.45;;;20.70;56.70;;;;;;5074236;28;20037;-64
2023/05/26 00:05:55;;;;;;;8.85;2.72;;;20.70;56.80;;;;;;5074460;28;20041;-65
2023/05/26 00:08:23;;;;;;;9.65;2.38;;;20.70;56.80;;;;;;5071535;28;20131;-65
2023/05/26 00:10:49;;;;;;;7.45;2.17;;;20.70;56.80;;;;;;5073503;28;20040;-65
2023/05/26 00:13:15;;;;;;;6.70;1.90;;;20.70;56.90;;;;;;5073485;28;20461;-66
2023/05/26 00:15:41;;;;;;;7.18;2.05;;;20.60;56.80;;;;;;5074649;28;20048;-65
2023/05/26 00:18:06;;;;;;;7.15;1.90;;;20.60;56.90;;;;;;5072992;28;20036;-65
2023/05/26 00:20:32;;;;;;;7.00;2.22;;;20.60;56.80;;;;;;5074096;28;20044;-64
2023/05/26 00:22:58;;;;;;;7.72;2.25;;;20.60;56.90;;;;;;5074790;28;20068;-65
2023/05/26 00:25:23;;;;;;;9.52;2.30;;;20.60;56.90;;;;;;5074375;28;20098;-65
2023/05/26 00:27:49;;;;;;;9.32;2.30;;;20.60;56.80;;;;;;5071898;28;20056;-65
2023/05/26 00:30:15;;;;;;;6.68;2.20;;;20.60;56.80;;;;;;5074508;28;20097;-64
2023/05/26 00:32:40;;;;;;;8.73;2.33;;;20.60;56.80;;;;;;5061376;28;20041;-65
2023/05/26 00:35:06;;;;;;;7.65;2.13;;;20.60;56.90;;;;;;5052216;28;20095;-65
2023/05/26 00:37:32;;;;;;;7.30;2.20;;;20.60;56.90;;;;;;5072590;28;20036;-64
2023/05/26 00:39:58;;;;;;;11.05;2.50;;;20.60;56.90;;;;;;5073498;28;20045;-64
2023/05/26 00:42:24;;;;;;;5.82;1.70;;;20.60;56.90;;;;;;5090635;28;20047;-65
2023/05/26 00:44:50;;;;;;;5.72;2.03;;;20.50;56.80;;;;;;5094640;28;20051;-65
2023/05/26 00:47:16;;;;;;;8.95;2.10;;;20.60;56.90;;;;;;5080732;28;20502;-65
2023/05/26 00:49:41;;;;;;;8.15;2.15;;;20.50;56.80;;;;;;5073577;28;20041;-65
2023/05/26 00:52:07;;;;;;;6.75;1.98;;;20.50;56.90;;;;;;5072903;28;20090;-65
2023/05/26 00:54:33;;;;;;;9.73;2.28;;;20.50;56.80;;;;;;5072879;28;20033;-65
2023/05/26 00:56:58;;;;;;;6.38;2.00;;;20.50;56.90;;;;;;5072163;28;20047;-65
2023/05/26 00:59:24;;;;;;;8.13;2.30;;;20.50;56.90;;;;;;5073775;28;20054;-65
2023/05/26 01:01:49;;;;;;;8.63;1.92;;;20.50;56.90;;;;;;5073736;28;20044;-65
2023/05/26 01:04:15;;;;;;;8.15;1.90;;;20.50;56.90;;;;;;5071468;28;20041;-65
2023/05/26 01:06:41;;;;;;;8.10;2.00;;;20.50;56.90;;;;;;5055891;28;20496;-65
2023/05/26 01:09:07;;;;;;;7.57;1.90;;;20.40;56.90;;;;;;5068944;28;20044;-65
2023/05/26 01:11:40;;;;;;;8.30;1.80;;;20.50;56.90;;;;;;5051653;28;20044;-65
2023/05/26 01:14:23;;;;;;;5.95;1.77;;;20.40;56.90;;;;;;5053013;28;20087;-65
2023/05/26 01:16:56;;;;;;;8.82;2.25;;;20.40;56.80;;;;;;5051267;28;20045;-64
2023/05/26 01:19:46;;;;;;;8.32;1.85;;;20.40;56.90;;;;;;5052110;28;20044;-65
2023/05/26 01:22:17;;;;;;;9.45;2.00;;;20.40;56.90;;;;;;5053398;28;20049;-65
2023/05/26 01:25:06;;;;;;;6.78;2.28;;;20.40;56.90;;;;;;5052658;28;20484;-65
2023/05/26 01:27:45;;;;;;;7.53;1.73;;;20.40;56.90;;;;;;5042344;28;20540;-65
2023/05/26 01:30:11;;;;;;;8.23;1.70;;;20.40;56.90;;;;;;5035659;28;20045;-65
2023/05/26 01:32:36;;;;;;;6.38;1.88;;;20.40;56.90;;;;;;5034197;28;20044;-65
2023/05/26 01:35:02;;;;;;;6.70;1.73;;;20.40;56.90;;;;;;5052221;28;20045;-65
2023/05/26 01:37:28;;;;;;;4.88;1.90;;;20.40;56.90;;;;;;5052326;28;20472;-65
2023/05/26 01:39:53;;;;;;;9.02;2.15;;;20.40;56.90;;;;;;5052064;28;20086;-65
2023/05/26 01:42:22;;;;;;;6.72;1.42;;;20.40;56.90;;;;;;5052371;28;20452;-65
2023/05/26 01:44:54;;;;;;;5.95;1.77;;;20.40;56.90;;;;;;5051360;28;20108;-65
2023/05/26 01:47:19;;;;;;;6.05;1.80;;;20.30;56.90;;;;;;5062881;28;20048;-65
2023/05/26 01:49:46;;;;;;;8.73;2.20;;;20.30;56.90;;;;;;5071732;28;20049;-65
2023/05/26 01:52:12;;;;;;;7.82;2.22;;;20.30;56.80;;;;;;5054189;28;20041;-65
2023/05/26 01:54:47;;;;;;;8.18;2.05;;;20.30;56.90;;;;;;5071604;28;20558;-65
2023/05/26 01:57:12;;;;;;;5.60;1.70;;;20.30;56.90;;;;;;5055405;28;20044;-65
2023/05/26 01:59:38;;;;;;;7.40;2.13;;;20.30;56.90;;;;;;5070054;28;20104;-65
2023/05/26 02:02:04;;;;;;;5.72;2.00;;;20.30;56.90;;;;;;5081104;28;20174;-65
2023/05/26 02:04:29;;;;;;;5.75;1.60;;;20.30;56.90;;;;;;5091145;28;20118;-65
2023/05/26 02:06:57;;;;;;;7.68;2.15;;;20.30;56.90;;;;;;5090557;28;20044;-65
2023/05/26 02:09:22;;;;;;;7.70;1.85;;;20.30;56.90;;;;;;5091038;28;20048;-65
2023/05/26 02:11:48;;;;;;;7.50;1.85;;;20.20;56.90;;;;;;5092288;28;20478;-65
2023/05/26 02:14:13;;;;;;;8.45;2.00;;;20.30;56.90;;;;;;5091798;28;20093;-65
2023/05/26 02:16:39;;;;;;;7.63;2.25;;;20.20;56.80;;;;;;5091369;28;20498;-65
2023/05/26 02:19:07;;;;;;;5.75;1.90;;;20.20;56.90;;;;;;5092898;28;20044;-65
2023/05/26 02:21:33;;;;;;;7.60;1.80;;;20.20;56.90;;;;;;5091933;28;20368;-64
2023/05/26 02:23:58;;;;;;;6.75;1.60;;;20.20;56.90;;;;;;5092665;28;20528;-65
2023/05/26 02:26:24;;;;;;;6.95;1.63;;;20.20;56.90;;;;;;5092556;28;20043;-65
2023/05/26 02:28:50;;;;;;;7.43;2.10;;;20.20;56.90;;;;;;5091914;28;20053;-65
2023/05/26 02:31:16;;;;;;;6.70;1.63;;;20.20;56.90;;;;;;5092063;28;20111;-65
2023/05/26 02:33:42;;;;;;;7.53;1.90;;;20.20;56.90;;;;;;5092580;28;20551;-65
2023/05/26 02:36:07;;;;;;;7.30;2.00;;;20.20;56.90;;;;;;5090384;28;20048;-65
2023/05/26 02:38:33;;;;;;;6.93;1.92;;;20.20;57.00;;;;;;5092274;28;20109;-65
2023/05/26 02:40:58;;;;;;;7.05;1.95;;;20.20;56.90;;;;;;5091982;28;20040;-64
2023/05/26 02:43:24;;;;;;;7.97;1.88;;;20.20;56.90;;;;;;5092338;28;20044;-65
2023/05/26 02:45:50;;;;;;;6.65;1.85;;;20.10;56.90;;;;;;5092168;28;20051;-65
2023/05/26 02:48:16;;;;;;;5.43;1.55;;;20.10;56.90;;;;;;5091329;28;20448;-64
2023/05/26 02:50:41;;;;;;;7.43;1.90;;;20.10;56.90;;;;;;5092384;28;20492;-64
2023/05/26 02:53:07;;;;;;;6.07;1.42;;;20.20;57.00;;;;;;5092250;28;20040;-65
2023/05/26 02:55:32;;;;;;;6.85;1.70;;;20.10;56.90;;;;;;5091288;28;20036;-64
2023/05/26 02:58:00;;;;;;;6.78;1.90;;;20.10;57.00;;;;;;5092305;28;20039;-65
2023/05/26 03:00:26;;;;;;;6.45;2.08;;;20.10;56.90;;;;;;5092022;28;20468;-65
2023/05/26 03:02:51;;;;;;;6.35;1.83;;;20.10;56.90;;;;;;5091149;28;20051;-65
2023/05/26 03:05:17;;;;;;;8.07;1.77;;;20.10;57.00;;;;;;5091799;28;20036;-65
2023/05/26 03:07:43;;;;;;;6.82;1.95;;;20.10;56.90;;;;;;5096248;28;20080;-65
2023/05/26 03:10:08;;;;;;;6.53;1.60;;;20.10;57.00;;;;;;5095534;28;20127;-65
2023/05/26 03:12:34;;;;;;;6.97;2.40;;;20.10;57.70;;;;;;5096293;28;20083;-64
2023/05/26 03:15:00;;;;;;;5.93;1.90;;;20.10;57.00;;;;;;5096511;28;20491;-65
2023/05/26 03:17:25;;;;;;;8.55;1.77;;;20.10;57.00;;;;;;5095084;28;20058;-65
2023/05/26 03:19:51;;;;;;;9.20;2.33;;;20.10;57.00;;;;;;5094615;28;20123;-65
2023/05/26 03:22:16;;;;;;;5.00;1.98;;;20.00;57.00;;;;;;5095936;28;20072;-64
2023/05/26 03:24:42;;;;;;;7.20;2.00;;;20.00;57.00;;;;;;5095364;28;20123;-65
2023/05/26 03:27:07;;;;;;;6.22;1.60;;;20.00;56.90;;;;;;5094360;28;20076;-65
2023/05/26 03:29:33;;;;;;;7.35;2.08;;;20.00;57.00;;;;;;5096182;28;20044;-64
2023/05/26 03:31:59;;;;;;;6.53;2.20;;;20.10;57.00;;;;;;5095361;28;20044;-65
2023/05/26 03:34:25;;;;;;;8.07;2.20;;;20.00;57.00;;;;;;5095769;28;20078;-65
2023/05/26 03:36:52;;;;;;;7.43;2.00;;;20.00;57.00;;;;;;5095861;28;20117;-65
2023/05/26 03:39:18;;;;;;;7.10;1.52;;;20.00;56.90;;;;;;5093380;28;20050;-65
2023/05/26 03:41:44;;;;;;;8.48;2.17;;;20.00;56.90;;;;;;5095940;28;20044;-64
2023/05/26 03:44:10;;;;;;;6.60;1.88;;;20.00;56.80;;;;;;5094054;28;20043;-65
2023/05/26 03:46:35;;;;;;;6.95;2.30;;;20.00;56.80;;;;;;5094956;28;20072;-64
2023/05/26 03:49:01;;;;;;;5.53;1.58;;;20.00;56.80;;;;;;5095679;28;20055;-64
2023/05/26 03:51:26;;;;;;;5.28;1.55;;;20.00;56.80;;;;;;5094750;28;20596;-65
2023/05/26 03:53:52;;;;;;;6.30;1.88;;;20.00;56.70;;;;;;5093835;28;20048;-65
2023/05/26 03:56:17;;;;;;;7.43;1.70;;;20.00;56.70;;;;;;5094926;28;20086;-64
2023/05/26 03:58:43;;;;;;;6.05;1.65;;;20.00;56.70;;;;;;5093664;28;20040;-64
2023/05/26 04:01:09;;;;;;;8.63;2.08;;;20.00;56.70;;;;;;5082128;28;20431;-64
2023/05/26 04:03:35;;;;;;;6.63;1.80;;;20.00;56.70;;;;;;5062136;28;20044;-64
2023/05/26 04:06:00;;;;;;;7.53;2.10;;;20.00;56.80;;;;;;5073853;28;20044;-65
2023/05/26 04:08:27;;;;;;;7.78;1.90;;;20.00;56.80;;;;;;5074102;28;20040;-64
2023/05/26 04:10:52;;;;;;;7.65;2.25;;;20.00;56.90;;;;;;5094201;28;20085;-64
2023/05/26 04:13:18;;;;;;;6.75;2.00;;;20.00;56.90;;;;;;5093578;28;20040;-65
2023/05/26 04:15:43;;;;;;;6.63;1.48;;;20.10;57.00;;;;;;5094837;28;20044;-64
2023/05/26 04:18:10;;;;;;;5.13;1.60;;;20.10;57.00;;;;;;5092821;28;20067;-65
2023/05/26 04:20:35;;;;;;;9.00;2.35;;;20.10;57.00;;;;;;5094262;28;20040;-64
2023/05/26 04:23:01;;;;;;;7.85;1.85;;;20.10;57.00;;;;;;5095241;28;20060;-64
2023/05/26 04:25:27;;;;;;;6.97;1.98;;;20.10;57.10;;;;;;5078977;28;20052;-65
2023/05/26 04:27:56;;;;;;;6.57;2.10;;;20.10;57.00;;;;;;5053718;28;20053;-64
2023/05/26 04:30:22;;;;;;;7.47;1.85;;;20.10;57.10;;;;;;5060841;28;20044;-64
2023/05/26 04:32:48;;;;;;;6.90;2.25;;;20.10;57.10;;;;;;5072529;28;20041;-64
2023/05/26 04:35:14;;;;;;;6.05;1.73;;;20.10;56.90;;;;;;5073356;28;20177;-64
2023/05/26 04:37:40;;;;;;;7.25;1.70;;;20.20;57.00;;;;;;5074592;28;20033;-65
2023/05/26 04:40:09;;;;;;;6.65;1.90;;;20.20;56.90;;;;;;5073008;28;20056;-65
2023/05/26 04:42:38;;;;;;;6.85;2.30;;;20.20;56.90;;;;;;5073177;28;20044;-64
2023/05/26 04:45:04;;;;;;;7.22;2.20;;;20.20;56.90;;;;;;5073332;28;20492;-64
2023/05/26 04:47:34;;;;;;;7.28;1.83;;;20.20;56.80;;;;;;5058565;28;20485;-65
2023/05/26 04:50:00;;;;;;;5.85;1.80;;;20.30;56.90;;;;;;5053028;28;20045;-65
2023/05/26 04:52:26;;;;;;;6.75;1.75;;;20.30;56.90;;;;;;5054153;28;20045;-65
2023/05/26 04:54:52;;;;;;;10.13;1.92;;;20.30;56.90;;;;;;5053366;28;20056;-65
2023/05/26 04:57:18;;;;;;;5.68;1.75;;;20.30;56.90;;;;;;5054083;28;20049;-65
2023/05/26 04:59:44;;;;;;;5.68;1.73;;;20.30;56.80;;;;;;5052690;28;20093;-64
2023/05/26 05:02:10;;;;;;;8.50;2.17;;;20.30;56.80;;;;;;5067922;28;20079;-65
2023/05/26 05:04:35;;;;;;;7.32;1.90;;;20.30;56.80;;;;;;5053772;28;20696;-65
2023/05/26 05:07:01;;;;;;;8.15;1.75;;;20.30;56.80;;;;;;5054193;28;20056;-65
2023/05/26 05:09:27;;;;;;;5.15;1.70;;;20.30;56.90;;;;;;5053016;28;20048;-65
2023/05/26 05:11:53;;;;;;;6.03;1.67;;;20.30;56.80;;;;;;5056349;28;20037;-65
2023/05/26 05:14:18;;;;;;;6.50;1.73;;;20.30;56.90;;;;;;5093584;28;20067;-65
2023/05/26 05:16:44;;;;;;;5.65;1.80;;;20.30;56.90;;;;;;5092740;28;20480;-65
2023/05/26 05:19:10;;;;;;;5.20;1.67;;;20.40;57.00;;;;;;5074155;28;20064;-65
2023/05/26 05:21:35;;;;;;;7.47;1.63;;;20.40;57.00;;;;;;5073768;28;20083;-65
2023/05/26 05:24:01;;;;;;;6.65;1.80;;;20.40;57.00;;;;;;5072748;28;20048;-65
2023/05/26 05:26:27;;;;;;;7.50;1.83;;;20.40;57.00;;;;;;5071808;28;20083;-65
2023/05/26 05:28:53;;;;;;;5.18;2.10;;;20.40;57.70;;;;;;5071855;28;20056;-65
2023/05/26 05:31:18;;;;;;;5.32;1.92;;;20.40;57.10;;;;;;5070055;28;20127;-65
2023/05/26 05:33:44;;;;;;;6.45;2.05;;;20.40;57.10;;;;;;5073522;28;20045;-65
2023/05/26 05:36:09;;;;;;;6.85;1.75;;;20.40;57.10;;;;;;5071829;28;20044;-65
2023/05/26 05:38:35;;;;;;;5.10;1.77;;;20.40;57.80;;;;;;5071257;28;20123;-65
2023/05/26 05:41:00;;;;;;;6.40;1.80;;;20.40;57.10;;;;;;5073534;28;20556;-65
2023/05/26 05:43:28;;;;;;;5.55;1.52;;;20.40;57.10;;;;;;5073019;28;20063;-65
2023/05/26 05:45:54;;;;;;;6.35;1.60;;;20.40;57.10;;;;;;5070696;28;20075;-65
2023/05/26 05:48:20;;;;;;;5.75;1.60;;;20.40;57.10;;;;;;5072956;28;20080;-65
2023/05/26 05:50:45;;;;;;;4.78;1.80;;;20.40;57.10;;;;;;5072472;28;20041;-65
2023/05/26 05:53:11;;;;;;;7.00;1.63;;;20.40;57.10;;;;;;5072744;28;20036;-65
2023/05/26 05:55:36;;;;;;;9.10;1.85;;;20.40;57.10;;;;;;5072943;28;20039;-68
2023/05/26 05:58:02;;;;;;;6.95;1.80;;;20.40;57.10;;;;;;5072575;28;20997;-65
2023/05/26 06:00:27;;;;;;;6.57;1.77;;;20.40;57.10;;;;;;5072324;28;20045;-64
2023/05/26 06:02:53;;;;;;;7.40;1.58;;;20.40;57.80;;;;;;5071803;28;20075;-64
2023/05/26 06:05:19;;;;;;;7.32;1.63;;;20.40;57.20;;;;;;5071449;28;20510;-65
2023/05/26 06:07:44;;;;;;;7.03;2.05;;;20.40;57.20;;;;;;5071408;28;20480;-65
2023/05/26 06:10:10;;;;;;;8.43;2.85;;;20.40;57.20;;;;;;5072545;28;20044;-64
2023/05/26 06:12:36;;;;;;;6.55;1.45;;;20.40;57.30;;;;;;5072152;28;20037;-65
2023/05/26 06:15:01;;;;;;;11.88;2.38;;;20.40;57.30;;;;;;5071261;28;20476;-65
2023/05/26 06:17:27;;;;;;;8.48;2.25;;;20.40;57.50;;;;;;5072106;28;20098;-64
2023/05/26 06:19:53;;;;;;;8.10;2.13;;;20.40;57.50;;;;;;5072073;28;20033;-64
2023/05/26 06:22:18;;;;;;;10.73;2.00;;;20.40;57.50;;;;;;5071014;28;20055;-64
2023/05/26 06:24:44;;;;;;;6.45;1.95;;;20.40;57.50;;;;;;5087319;28;20065;-67
2023/05/26 06:27:09;;;;;;;8.30;1.88;;;20.40;57.50;;;;;;5090281;28;20109;-65
2023/05/26 06:29:35;;;;;;;8.55;2.08;;;20.40;57.50;;;;;;5093006;28;20039;-64
2023/05/26 06:32:01;;;;;;;8.00;2.22;;;20.40;57.60;;;;;;5091247;28;20130;-65
2023/05/26 06:34:26;;;;;;;11.45;2.13;;;20.40;57.70;;;;;;5091478;28;20051;-65
2023/05/26 06:36:52;;;;;;;8.85;1.70;;;20.40;57.80;;;;;;5091692;28;20489;-66
2023/05/26 06:39:17;;;;;;;8.63;1.95;;;20.50;57.90;;;;;;5091909;28;20036;-66
2023/05/26 06:41:43;;;;;;;11.38;2.60;;;20.50;57.90;;;;;;5091525;28;20039;-63
2023/05/26 06:44:08;;;;;;;8.20;2.00;;;20.50;57.90;;;;;;5092415;28;20388;-65
2023/05/26 06:46:34;;;;;;;9.55;2.28;;;20.50;58.00;;;;;;5088741;28;20077;-66
2023/05/26 06:49:00;;;;;;;13.82;2.05;;;20.50;58.00;;;;;;5069637;28;20068;-64
2023/05/26 06:51:25;;;;;;;7.15;2.15;;;20.50;58.10;;;;;;5072063;28;20044;-70
2023/05/26 06:53:51;;;;;;;9.07;2.20;;;20.50;58.00;;;;;;5071132;28;20048;-69
2023/05/26 06:56:16;;;;;;;8.98;2.08;;;20.50;58.00;;;;;;5071042;28;20040;-69
2023/05/26 06:58:42;;;;;;;12.07;2.35;;;20.50;57.90;;;;;;5070946;28;20052;-76
2023/05/26 07:01:08;;;;;;;9.90;2.20;;;20.60;57.90;;;;;;5071139;28;20044;-66
2023/05/26 07:03:33;;;;;;;10.05;2.08;;;20.60;58.40;;;;;;5072273;28;20125;-70
2023/05/26 07:06:00;;;;;;;7.95;2.22;;;20.50;58.50;;;;;;5070842;28;20408;-69
2023/05/26 07:08:26;;;;;;;7.93;2.17;;;20.60;57.90;;;;;;5070146;28;20562;-66
2023/05/26 07:10:55;;;;;;;10.18;2.05;;;20.60;57.90;;;;;;5071952;28;20369;-65
2023/05/26 07:13:21;;;;;;;10.93;2.40;;;20.60;57.90;;;;;;5070807;28;20094;-66
2023/05/26 07:15:46;;;;;;;8.50;2.38;;;20.60;57.80;;;;;;5071422;28;20028;-65
2023/05/26 07:18:12;;;;;;;10.00;2.78;;;20.60;57.80;;;;;;5071986;28;20551;-65
2023/05/26 07:20:38;;;;;;;10.13;2.55;;;20.60;57.90;;;;;;5070458;28;20041;-65
2023/05/26 07:23:03;;;;;;;8.95;2.10;;;20.60;57.90;;;;;;5071155;28;20048;-67
2023/05/26 07:25:29;;;;;;;11.77;2.42;;;20.60;57.90;;;;;;5058259;28;20037;-65
2023/05/26 07:27:55;;;;;;;9.15;2.03;;;20.60;58.00;;;;;;5068424;28;20064;-65
2023/05/26 07:30:21;;;;;;;9.30;1.92;;;20.60;58.00;;;;;;5060943;28;20052;-64
2023/05/26 07:32:46;;;;;;;9.57;2.17;;;20.60;58.00;;;;;;5066487;28;20037;-65
2023/05/26 07:35:12;;;;;;;8.27;2.25;;;20.60;58.00;;;;;;5069148;28;20489;-66
2023/05/26 07:37:38;;;;;;;10.38;2.10;;;20.60;58.00;;;;;;5070722;28;20047;-65
2023/05/26 07:40:05;;;;;;;11.52;2.50;;;20.70;58.20;;;;;;5071846;28;20119;-65
2023/05/26 07:42:31;;;;;;;7.03;2.00;;;20.70;58.20;;;;;;5071868;28;20144;-65
2023/05/26 07:44:57;;;;;;;11.13;2.75;;;20.70;58.20;;;;;;5070922;28;20547;-65
2023/05/26 07:47:23;;;;;;;11.90;2.47;;;20.70;58.20;;;;;;5071828;28;20037;-66
2023/05/26 07:49:48;;;;;;;7.95;1.80;;;20.70;58.20;;;;;;5072232;28;20044;-66
2023/05/26 07:52:14;;;;;;;10.15;2.97;;;20.70;58.10;;;;;;5072098;28;20430;-65
2023/05/26 07:54:40;;;;;;;12.02;2.58;;;20.70;58.00;;;;;;5075596;28;20047;-65
2023/05/26 07:57:05;;;;;;;8.50;2.08;;;20.70;58.00;;;;;;5074422;28;20040;-66
2023/05/26 07:59:31;;;;;;;8.20;2.20;;;20.70;57.90;;;;;;5073845;28;20060;-66
2023/05/26 08:01:56;;;;;;;9.85;2.00;;;20.70;57.80;;;;;;5075709;28;20455;-66
2023/05/26 08:04:22;;;;;;;6.95;2.00;;;20.70;57.80;;;;;;5074569;28;20052;-73
2023/05/26 08:06:47;;;;;;;10.68;2.30;;;20.70;57.70;;;;;;5074439;28;20045;-68
2023/05/26 08:09:13;;;;;;;11.02;2.00;;;20.70;57.90;;;;;;5074728;28;20135;-67
2023/05/26 08:11:38;;;;;;;11.52;2.40;;;20.70;58.00;;;;;;5074477;28;20094;-67
2023/05/26 08:14:04;;;;;;;10.10;2.03;;;20.70;58.00;;;;;;5075006;28;20063;-73
2023/05/26 08:16:29;;;;;;;10.18;2.30;;;20.70;58.00;;;;;;5073654;28;20499;-67
2023/05/26 08:18:55;;;;;;;7.85;2.10;;;20.70;57.90;;;;;;5074694;28;20048;-68
2023/05/26 08:21:20;;;;;;;9.65;2.03;;;20.70;57.90;;;;;;5074646;28;20047;-66
2023/05/26 08:23:46;;;;;;;14.27;2.50;;;20.70;57.80;;;;;;5065018;28;20048;-69
2023/05/26 08:26:12;;;;;;;9.93;2.45;;;20.70;57.70;;;;;;5084714;28;20563;-69
2023/05/26 08:28:37;;;;;;;8.95;2.40;;;20.70;57.70;;;;;;5073424;28;20513;-69
2023/05/26 08:31:03;;;;;;;15.63;2.78;;;20.70;57.60;;;;;;5067916;28;20052;-69
2023/05/26 08:33:28;;;;;;;10.15;2.03;;;20.70;57.60;;;;;;5066000;28;20047;-68
2023/05/26 08:35:54;;;;;;;8.95;2.40;;;20.70;57.50;;;;;;5058533;28;20219;-70
2023/05/26 08:38:20;;;;;;;10.98;2.28;;;20.80;57.60;;;;;;5069818;28;20045;-69
2023/05/26 08:40:47;;;;;;;12.48;2.65;;;20.80;57.50;;;;;;5071587;28;20033;-69
2023/05/26 08:43:12;;;;;;;9.75;2.55;;;20.80;57.50;;;;;;5042961;28;20094;-69
2023/05/26 08:45:38;;;;;;;10.32;2.92;;;20.80;57.40;;;;;;5065795;28;20119;-69
2023/05/26 08:48:07;;;;;;;9.88;2.22;;;20.80;57.40;;;;;;5079233;28;20052;-69
2023/05/26 08:50:33;;;;;;;8.95;2.25;;;20.80;57.40;;;;;;5051937;28;20102;-69
2023/05/26 08:53:00;;;;;;;9.80;2.10;;;20.80;57.30;;;;;;5070005;28;20048;-69
2023/05/26 08:55:27;;;;;;;8.75;1.90;;;20.80;57.20;;;;;;5072123;28;20484;-69
2023/05/26 08:57:52;;;;;;;9.20;2.30;;;20.80;57.10;;;;;;5073051;28;20219;-69
2023/05/26 09:00:18;;;;;;;9.95;2.17;;;20.80;57.10;;;;;;5073150;28;20231;-69
2023/05/26 09:02:44;;;;;;;10.35;2.35;;;20.80;57.00;;;;;;5072960;28;20044;-69
2023/05/26 09:05:10;;;;;;;9.32;2.13;;;20.80;57.00;;;;;;5056314;28;20044;-69
2023/05/26 09:07:35;;;;;;;5.93;1.75;;;20.80;57.00;;;;;;5074073;28;20071;-69
2023/05/26 09:10:03;;;;;;;8.38;2.20;;;20.80;57.00;;;;;;5072581;28;20047;-69
2023/05/26 09:12:35;;;;;;;10.80;2.10;;;20.80;57.00;;;;;;5072743;28;20158;-67
2023/05/26 09:15:00;;;;;;;6.28;2.17;;;20.90;57.10;;;;;;5072443;28;20123;-66
2023/05/26 09:17:26;;;;;;;11.85;2.60;;;20.90;57.10;;;;;;5074047;28;20123;-62
2023/05/26 09:19:52;;;;;;;12.50;2.10;;;20.90;57.10;;;;;;5072939;28;20395;-67
2023/05/26 09:22:22;;;;;;;15.85;2.10;;;20.90;57.10;;;;;;5055431;28;20519;-67
2023/05/26 09:24:48;;;;;;;10.23;2.05;;;20.90;57.10;;;;;;5073659;28;20048;-66
2023/05/26 09:27:21;;;;;;;10.98;2.60;;;20.90;57.10;;;;;;5073432;28;20055;-67
2023/05/26 09:30:00;;;;;;;9.90;2.05;;;20.90;57.10;;;;;;5071721;28;20503;-66
2023/05/26 09:32:29;;;;;;;8.45;2.33;;;20.90;57.00;;;;;;5072227;28;20051;-69
2023/05/26 09:35:00;;;;;;;7.13;2.50;;;21.00;57.10;;;;;;5074016;28;20051;-68
2023/05/26 09:37:28;;;;;;;11.88;2.17;;;20.90;57.10;;;;;;5072623;28;20105;-68
2023/05/26 09:39:54;;;;;;;10.77;2.58;;;21.00;57.10;;;;;;5073854;28;20036;-66
2023/05/26 09:42:19;;;;;;;8.65;2.35;;;21.00;57.10;;;;;;5073372;28;20094;-71
2023/05/26 09:44:50;;;;;;;8.60;2.05;;;21.00;57.20;;;;;;5070966;28;20051;-74
2023/05/26 09:47:20;;;;;;;10.25;2.08;;;21.00;57.20;;;;;;5071193;28;20037;-69
2023/05/26 09:49:45;;;;;;;8.23;1.90;;;21.10;57.10;;;;;;5073163;28;20053;-69
2023/05/26 09:52:11;;;;;;;9.93;1.77;;;21.10;57.10;;;;;;5072810;28;20047;-70
2023/05/26 09:54:36;;;;;;;8.77;2.53;;;21.20;57.00;;;;;;5055366;28;20047;-74
2023/05/26 09:57:05;;;;;;;8.13;1.92;;;21.20;57.00;;;;;;5071645;28;20036;-73
2023/05/26 09:59:32;;;;;;;10.30;2.25;;;21.20;57.00;;;;;;5072327;28;20488;-73
2023/05/26 10:01:58;;;;;;;8.98;2.10;;;21.20;57.00;;;;;;5071030;28;20484;-73
2023/05/26 10:04:24;;;;;;;12.80;1.95;;;21.30;57.00;;;;;;5054171;28;20061;-73
2023/05/26 10:06:50;;;;;;;9.10;1.67;;;21.20;57.00;;;;;;5071353;28;20053;-73
2023/05/26 10:09:15;;;;;;;8.55;2.00;;;21.20;57.00;;;;;;5038241;28;20484;-75
2023/05/26 10:11:43;;;;;;;11.43;2.15;;;21.20;57.00;;;;;;5071245;28;20458;-73
2023/05/26 10:14:09;;;;;;;7.93;1.93;;;21.20;57.00;;;;;;5082412;28;20064;-73
2023/05/26 10:16:35;;;;;;;6.47;1.65;;;21.20;57.00;;;;;;5074796;28;20302;-75
2023/05/26 10:19:00;;;;;;;14.82;2.08;;;21.20;57.20;;;;;;5073500;28;20040;-73
2023/05/26 10:21:29;;;;;;;11.15;2.10;;;21.20;57.50;;;;;;5072393;28;20200;-72
2023/05/26 10:24:00;;;;;;;;;;;21.20;57.70;;;;;;5054958;28;20132;-71
2023/05/26 10:26:51;;;;;;;9.75;2.17;;;21.20;58.50;;;;;;5067261;28;19978;-69
2023/05/26 10:29:18;;;;;;;9.85;1.83;;;21.20;57.90;;;;;;5076153;28;20415;-77
2023/05/26 10:31:43;;;;;;;10.20;2.33;;;21.10;58.00;;;;;;5071173;28;20036;-74
2023/05/26 10:34:13;;;;;;;9.55;2.00;;;21.20;58.40;;;;;;5071264;28;20059;-75
2023/05/26 10:36:39;;;;;;;7.47;1.90;;;21.20;58.60;;;;;;5072015;28;20040;-74
2023/05/26 10:39:09;;;;;;;11.32;2.60;;;21.20;58.50;;;;;;5071269;28;20388;-73
2023/05/26 10:41:37;;;;;;;11.20;2.63;;;21.20;58.70;;;;;;5071996;28;20040;-72
2023/05/26 10:44:03;;;;;;;9.80;2.47;;;21.20;58.80;;;;;;5071722;28;20052;-72
2023/05/26 10:46:47;;;;;;;12.88;2.38;;;21.20;58.90;;;;;;5070007;28;20373;-72
2023/05/26 10:49:20;;;;;;;9.20;3.05;;;21.20;59.00;;;;;;5078806;28;20045;-72
2023/05/26 10:51:51;;;;;;;8.13;2.22;;;21.20;59.00;;;;;;5069621;28;20041;-72
2023/05/26 10:54:18;;;;;;;14.88;2.30;;;21.20;59.00;;;;;;5070850;28;20021;-70
2023/05/26 10:56:44;;;;;;;8.80;2.03;;;21.20;59.70;;;;;;5071557;28;20052;-70
2023/05/26 10:59:39;;;;;;;9.35;2.10;;;21.20;59.00;;;;;;5052994;28;20039;-71
2023/05/26 11:02:06;;;;;;;7.78;2.28;;;21.20;59.50;;;;;;5062061;28;20052;-70
2023/05/26 11:04:45;;;;;;;10.43;2.60;;;21.20;58.70;;;;;;5072762;28;20054;-71
2023/05/26 11:07:24;;;;;;;8.77;2.15;;;21.20;58.70;;;;;;5071484;28;20400;-71
2023/05/26 11:10:05;;;;;;;10.10;2.22;;;21.20;58.70;;;;;;5072601;28;20052;-71
2023/05/26 11:12:34;;;;;;;7.88;2.25;;;21.20;58.70;;;;;;5072499;28;20085;-71
2023/05/26 11:15:30;;;;;;;10.30;2.38;;;21.30;58.80;;;;;;5071780;28;20040;-70
2023/05/26 11:18:06;;;;;;;7.20;2.22;;;21.30;58.70;;;;;;5071358;28;20511;-70
2023/05/26 11:20:31;;;;;;;8.63;2.20;;;21.30;58.80;;;;;;5070990;28;20480;-67
2023/05/26 11:22:57;;;;;;;7.35;2.13;;;21.30;58.50;;;;;;5053605;28;20037;-68
2023/05/26 11:25:23;;;;;;;9.82;2.33;;;21.30;58.30;;;;;;5071859;28;20072;-71
2023/05/26 11:27:49;;;;;;;10.13;1.92;;;21.30;58.20;;;;;;5074193;28;20061;-65
2023/05/26 11:30:15;;;;;;;6.82;1.80;;;21.30;58.00;;;;;;5075383;28;20526;-72
2023/05/26 11:32:45;;;;;;;11.45;2.35;;;21.30;57.90;;;;;;5076444;28;20041;-71
2023/05/26 11:35:26;;;;;;;9.05;2.38;;;21.30;57.40;;;;;;5075834;28;20045;-77
2023/05/26 11:37:52;;;;;;;8.35;2.13;;;21.20;56.60;;;;;;5075355;28;20079;-68
2023/05/26 11:40:18;;;;;;;7.47;1.90;;;21.20;56.40;;;;;;5075457;28;20064;-67
2023/05/26 11:42:44;;;;;;;10.93;2.50;;;21.20;56.10;;;;;;5074943;28;20040;-68
2023/05/26 11:45:10;;;;;;;11.32;2.03;;;21.20;55.80;;;;;;5075533;28;20036;-68
2023/05/26 11:47:36;;;;;;;8.70;2.10;;;21.20;55.70;;;;;;5075919;28;20372;-67
2023/05/26 11:50:09;;;;;;;8.05;2.25;;;21.20;55.70;;;;;;5075325;28;20040;-67
2023/05/26 11:52:40;;;;;;;9.90;2.13;;;21.20;55.50;;;;;;5075185;28;20384;-68
2023/05/26 11:55:06;;;;;;;7.45;2.03;;;21.20;55.40;;;;;;5075343;28;20048;-68
2023/05/26 11:57:34;;;;;;;8.27;2.22;;;21.20;55.10;;;;;;5074119;28;20071;-69
2023/05/26 11:59:59;;;;;;;8.90;2.35;;;21.20;54.80;;;;;;5075764;28;20044;-68
2023/05/26 12:02:25;;;;;;;6.53;1.92;;;21.20;54.80;;;;;;5074341;28;20512;-69
2023/05/26 12:04:51;;;;;;;8.40;2.00;;;21.20;54.50;;;;;;5073482;28;20416;-69
2023/05/26 12:07:30;;;;;;;10.02;2.60;;;21.20;54.40;;;;;;5073829;28;20087;-68
2023/05/26 12:10:06;;;;;;;8.07;2.10;;;21.20;54.20;;;;;;5075372;28;20048;-68
2023/05/26 12:12:45;;;;;;;6.75;2.10;;;21.20;54.20;;;;;;5074678;28;20067;-68
2023/05/26 12:15:10;;;;;;;9.10;2.28;;;21.20;54.20;;;;;;5074869;28;20504;-67
2023/05/26 12:17:36;;;;;;;8.50;1.95;;;21.30;54.20;;;;;;5073057;28;20040;-74
2023/05/26 12:20:05;;;;;;;8.18;2.38;;;21.20;54.00;;;;;;5073584;28;20036;-70
2023/05/26 12:22:30;;;;;;;8.60;2.00;;;21.20;53.90;;;;;;5075380;28;20108;-68
2023/05/26 12:25:00;;;;;;;7.15;2.00;;;21.30;53.80;;;;;;5074035;28;20452;-67
2023/05/26 12:27:35;;;;;;;11.50;2.15;;;21.20;53.60;;;;;;5074566;28;20441;-67
2023/05/26 12:30:15;;;;;;;8.48;2.15;;;21.20;53.50;;;;;;5075326;28;20071;-67
2023/05/26 12:32:40;;;;;;;5.97;1.98;;;21.20;53.70;;;;;;5059511;28;20036;-67
2023/05/26 12:35:06;;;;;;;8.35;2.22;;;21.20;53.70;;;;;;5071414;28;20450;-67
2023/05/26 12:37:31;;;;;;;10.10;1.92;;;21.20;53.80;;;;;;5072572;28;20151;-66
2023/05/26 12:39:57;;;;;;;8.60;2.08;;;21.20;53.90;;;;;;5073530;28;20090;-66
2023/05/26 12:42:23;;;;;;;7.32;2.03;;;21.20;54.00;;;;;;5074141;28;20051;-66
2023/05/26 12:44:48;;;;;;;10.02;2.08;;;21.20;54.10;;;;;;5074324;28;20047;-66